createdAt,value
2023-05-10T00:00:49.175Z,5.52
2023-05-10T00:03:15.952Z,5.54
2023-05-10T00:05:42.764Z,5.57
2023-05-10T00:08:09.458Z,5.58
2023-05-10T00:10:36.254Z,5.55
2023-05-10T00:13:03.037Z,5.53
2023-05-10T00:15:31.483Z,5.52
2023-05-10T00:17:58.217Z,5.52
2023-05-10T00:20:24.879Z,5.52
2023-05-10T00:22:52.050Z,5.52
2023-05-10T00:25:18.828Z,5.50
2023-05-10T00:27:45.555Z,5.49
2023-05-10T00:30:12.337Z,5.48
2023-05-10T00:32:39.083Z,5.47
2023-05-10T00:35:06.149Z,5.43
2023-05-10T00:37:33.121Z,5.40
2023-05-10T00:40:00.706Z,5.38
2023-05-10T00:42:27.453Z,5.37
2023-05-10T00:44:54.365Z,5.38
2023-05-10T00:47:21.143Z,5.37
2023-05-10T00:49:47.816Z,5.33
2023-05-10T00:52:14.570Z,5.35
2023-05-10T00:54:41.600Z,5.38
2023-05-10T00:57:08.287Z,5.41
2023-05-10T00:59:35.207Z,5.45
2023-05-10T01:02:02.671Z,5.48
2023-05-10T01:04:29.986Z,5.52
2023-05-10T01:06:58.185Z,5.55
2023-05-10T01:09:27.281Z,5.56
2023-05-10T01:11:54.331Z,5.58
2023-05-10T01:14:21.086Z,5.60
2023-05-10T01:16:48.552Z,5.59
2023-05-10T01:19:21.367Z,5.56
2023-05-10T01:21:54.378Z,5.52
2023-05-10T01:24:48.879Z,5.50
2023-05-10T01:27:18.655Z,5.50
2023-05-10T01:29:50.266Z,5.49
2023-05-10T01:32:27.854Z,5.43
2023-05-10T01:35:01.927Z,5.35
2023-05-10T01:37:42.411Z,5.26
2023-05-10T01:40:40.362Z,5.22
2023-05-10T01:43:13.947Z,5.20
2023-05-10T01:45:51.899Z,5.22
2023-05-10T01:48:18.844Z,5.26
2023-05-10T01:50:46.042Z,5.27
2023-05-10T01:53:13.880Z,5.25
2023-05-10T01:55:51.926Z,5.25
2023-05-10T01:58:24.677Z,5.27
2023-05-10T02:00:52.100Z,5.29
2023-05-10T02:03:19.714Z,5.31
2023-05-10T02:05:46.683Z,5.30
2023-05-10T02:08:13.736Z,5.28
2023-05-10T02:10:40.590Z,5.24
2023-05-10T02:13:08.500Z,5.22
2023-05-10T02:15:35.339Z,5.19
2023-05-10T02:18:02.035Z,5.11
2023-05-10T02:20:28.774Z,5.07
2023-05-10T02:22:56.158Z,5.03
2023-05-10T02:25:23.957Z,5.00
2023-05-10T02:27:50.634Z,4.96
2023-05-10T02:30:17.919Z,4.90
2023-05-10T02:32:44.842Z,4.87
2023-05-10T02:35:11.804Z,4.87
2023-05-10T02:37:38.792Z,4.88
2023-05-10T02:40:06.448Z,4.89
2023-05-10T02:42:34.210Z,4.88
2023-05-10T02:45:01.868Z,4.88
2023-05-10T02:47:29.551Z,4.88
2023-05-10T02:49:56.240Z,4.88
2023-05-10T02:52:25.769Z,4.86
2023-05-10T02:54:53.703Z,4.83
2023-05-10T02:57:24.290Z,4.83
2023-05-10T02:59:50.900Z,4.84
2023-05-10T03:02:17.568Z,4.84
2023-05-10T03:04:44.522Z,4.80
2023-05-10T03:07:11.190Z,4.76
2023-05-10T03:09:37.887Z,4.70
2023-05-10T03:12:04.550Z,4.66
2023-05-10T03:16:08.863Z,4.65
2023-05-10T03:19:02.965Z,4.60
2023-05-10T03:21:30.146Z,4.60
2023-05-10T03:24:04.145Z,4.60
2023-05-10T03:26:31.207Z,4.60
2023-05-10T03:29:03.684Z,4.61
2023-05-10T03:31:30.552Z,4.62
2023-05-10T03:33:57.361Z,4.62
2023-05-10T03:36:26.199Z,4.64
2023-05-10T03:38:53.067Z,4.68
2023-05-10T03:41:20.055Z,4.69
2023-05-10T03:43:47.811Z,4.70
2023-05-10T03:46:14.526Z,4.71
2023-05-10T03:48:41.744Z,4.74
2023-05-10T03:51:08.533Z,4.76
2023-05-10T03:53:35.402Z,4.78
2023-05-10T03:56:02.187Z,4.80
2023-05-10T03:58:28.806Z,4.82
2023-05-10T04:00:56.417Z,4.83
2023-05-10T04:03:23.183Z,4.83
2023-05-10T04:05:50.042Z,4.89
2023-05-10T04:08:17.527Z,4.97
2023-05-10T04:10:44.675Z,5.10
2023-05-10T04:13:12.318Z,5.28
2023-05-10T04:15:39.015Z,5.45
2023-05-10T04:18:07.968Z,5.57
2023-05-10T04:20:35.589Z,5.67
2023-05-10T04:23:02.290Z,5.77
2023-05-10T04:25:28.929Z,5.89
2023-05-10T04:27:55.595Z,6.04
2023-05-10T04:30:22.246Z,6.20
2023-05-10T04:32:49.019Z,6.37
2023-05-10T04:35:15.963Z,6.53
2023-05-10T04:37:42.689Z,6.68
2023-05-10T04:40:10.197Z,6.82
2023-05-10T04:42:36.948Z,6.98
2023-05-10T04:45:04.061Z,7.14
2023-05-10T04:47:30.869Z,7.33
2023-05-10T04:49:57.598Z,7.50
2023-05-10T04:52:24.219Z,7.69
2023-05-10T04:54:52.016Z,7.86
2023-05-10T04:57:18.799Z,8.02
2023-05-10T04:59:45.478Z,8.18
2023-05-10T05:02:12.334Z,8.36
2023-05-10T05:04:39.011Z,8.53
2023-05-10T05:07:05.830Z,8.70
2023-05-10T05:09:33.116Z,8.85
2023-05-10T05:11:59.811Z,9.00
2023-05-10T05:14:26.461Z,9.12
2023-05-10T05:16:53.752Z,9.23
2023-05-10T05:19:20.457Z,9.34
2023-05-10T05:21:47.137Z,9.46
2023-05-10T05:24:13.787Z,9.58
2023-05-10T05:26:40.470Z,9.69
2023-05-10T05:29:07.493Z,9.80
2023-05-10T05:31:34.410Z,9.90
2023-05-10T05:34:01.115Z,10.00
2023-05-10T05:36:27.788Z,10.08
2023-05-10T05:38:54.428Z,10.17
2023-05-10T05:41:22.532Z,10.28
2023-05-10T05:43:49.227Z,10.36
2023-05-10T05:46:15.986Z,10.42
2023-05-10T05:48:42.742Z,10.49
2023-05-10T05:51:09.519Z,10.57
2023-05-10T05:53:36.288Z,10.60
2023-05-10T05:56:03.340Z,10.64
2023-05-10T05:58:30.035Z,10.69
2023-05-10T06:00:56.656Z,10.73
2023-05-10T06:03:23.383Z,10.83
2023-05-10T06:05:50.382Z,10.94
2023-05-10T06:08:17.072Z,11.03
2023-05-10T06:10:44.154Z,11.09
2023-05-10T06:13:11.056Z,11.15
2023-05-10T06:15:37.952Z,11.20
2023-05-10T06:18:04.699Z,11.26
2023-05-10T06:20:32.636Z,11.29
2023-05-10T06:22:59.751Z,11.28
2023-05-10T06:25:26.469Z,11.26
2023-05-10T06:27:58.054Z,11.30
2023-05-10T06:30:28.462Z,11.36
2023-05-10T06:32:55.847Z,11.45
2023-05-10T06:35:22.585Z,11.55
2023-05-10T06:37:49.852Z,11.63
2023-05-10T06:40:16.968Z,11.68
2023-05-10T06:42:44.281Z,11.75
2023-05-10T06:45:11.650Z,11.81
2023-05-10T06:47:39.289Z,11.87
2023-05-10T06:50:07.002Z,11.96
2023-05-10T06:52:33.734Z,12.01
2023-05-10T06:55:01.301Z,12.03
2023-05-10T06:57:31.622Z,12.06
2023-05-10T07:00:02.593Z,12.04
2023-05-10T07:02:29.470Z,12.01
2023-05-10T07:04:56.507Z,12.00
2023-05-10T07:07:23.210Z,12.05
2023-05-10T07:09:51.008Z,12.11
2023-05-10T07:12:17.883Z,12.14
2023-05-10T07:14:44.663Z,12.12
2023-05-10T07:17:11.370Z,12.13
2023-05-10T07:19:38.131Z,12.18
2023-05-10T07:22:04.853Z,12.24
2023-05-10T07:24:32.364Z,12.32
2023-05-10T07:26:59.116Z,12.43
2023-05-10T07:29:25.992Z,12.56
2023-05-10T07:31:52.672Z,12.62
2023-05-10T07:34:19.468Z,12.65
2023-05-10T07:36:46.214Z,12.71
2023-05-10T07:39:18.651Z,12.82
2023-05-10T07:41:51.416Z,12.96
2023-05-10T07:44:20.228Z,13.05
2023-05-10T07:46:47.605Z,13.14
2023-05-10T07:49:14.474Z,13.24
2023-05-10T07:51:41.180Z,13.35
2023-05-10T07:54:07.989Z,13.40
2023-05-10T07:56:35.541Z,13.47
2023-05-10T07:59:04.747Z,13.49
2023-05-10T08:01:32.525Z,13.46
2023-05-10T08:03:59.266Z,13.46
2023-05-10T08:06:28.154Z,13.44
2023-05-10T08:08:55.224Z,13.40
2023-05-10T08:11:22.191Z,13.45
2023-05-10T08:13:49.752Z,13.53
2023-05-10T08:16:18.006Z,13.63
2023-05-10T08:18:46.044Z,13.76
2023-05-10T08:21:12.879Z,13.84
2023-05-10T08:23:39.625Z,13.92
2023-05-10T08:26:07.318Z,14.00
2023-05-10T08:28:34.030Z,14.08
2023-05-10T08:31:01.082Z,14.15
2023-05-10T08:33:28.687Z,14.15
2023-05-10T08:35:55.429Z,14.11
2023-05-10T08:38:22.056Z,14.13
2023-05-10T08:40:48.828Z,14.14
2023-05-10T08:43:18.765Z,14.16
2023-05-10T08:45:48.621Z,14.21
2023-05-10T08:48:15.456Z,14.12
2023-05-10T08:50:42.480Z,13.97
2023-05-10T08:53:13.946Z,13.92
2023-05-10T08:55:41.342Z,13.88
2023-05-10T08:58:08.056Z,13.84
2023-05-10T09:00:34.959Z,13.73
2023-05-10T09:03:02.291Z,13.59
2023-05-10T09:05:29.263Z,13.55
2023-05-10T09:07:56.022Z,13.52
2023-05-10T09:10:22.788Z,13.42
2023-05-10T09:12:49.544Z,13.27
2023-05-10T09:15:16.731Z,13.06
2023-05-10T09:17:43.966Z,12.91
2023-05-10T09:20:10.963Z,12.84
2023-05-10T09:22:38.736Z,12.81
2023-05-10T09:25:15.763Z,12.79
2023-05-10T09:27:46.190Z,12.79
2023-05-10T09:30:17.757Z,12.76
2023-05-10T09:32:46.085Z,12.77
2023-05-10T09:35:18.525Z,12.80
2023-05-10T09:37:47.212Z,12.85
2023-05-10T09:40:24.737Z,12.88
2023-05-10T09:42:53.290Z,12.92
2023-05-10T09:45:20.063Z,12.99
2023-05-10T09:47:47.119Z,13.01
2023-05-10T09:50:13.945Z,12.98
2023-05-10T09:53:00.211Z,12.93
2023-05-10T09:55:39.565Z,12.88
2023-05-10T09:58:10.408Z,12.87
2023-05-10T10:00:38.140Z,12.88
2023-05-10T10:03:05.474Z,12.87
2023-05-10T10:05:36.337Z,12.86
2023-05-10T10:08:06.299Z,12.85
2023-05-10T10:10:33.966Z,12.88
2023-05-10T10:13:00.895Z,12.94
2023-05-10T10:15:27.563Z,13.00
2023-05-10T10:17:54.364Z,13.05
2023-05-10T10:20:22.054Z,13.07
2023-05-10T10:22:48.900Z,13.04
2023-05-10T10:25:17.023Z,13.06
2023-05-10T10:27:53.248Z,13.08
2023-05-10T10:30:44.716Z,13.14
2023-05-10T10:33:27.691Z,13.18
2023-05-10T10:35:55.525Z,13.19
2023-05-10T10:38:23.005Z,13.19
2023-05-10T10:40:49.682Z,13.22
2023-05-10T10:43:23.295Z,13.25
2023-05-10T10:46:09.179Z,13.26
2023-05-10T10:48:36.074Z,13.22
2023-05-10T10:51:02.688Z,13.21
2023-05-10T10:53:29.828Z,13.24
2023-05-10T10:56:10.972Z,13.29
2023-05-10T10:58:39.054Z,13.32
2023-05-10T11:01:18.605Z,13.33
2023-05-10T11:04:04.333Z,13.37
2023-05-10T11:06:35.056Z,13.44
2023-05-10T11:09:08.668Z,13.44
2023-05-10T11:11:36.185Z,13.45
2023-05-10T11:14:07.338Z,13.50
2023-05-10T11:16:44.213Z,13.56
2023-05-10T11:19:17.790Z,13.63
2023-05-10T11:21:50.834Z,13.71
2023-05-10T11:24:23.210Z,13.77
2023-05-10T11:26:53.299Z,13.76
2023-05-10T11:29:20.310Z,13.67
2023-05-10T11:31:48.050Z,13.62
2023-05-10T11:34:32.240Z,13.63
2023-05-10T11:36:58.906Z,13.69
2023-05-10T11:39:32.920Z,13.76
2023-05-10T11:41:59.790Z,13.87
2023-05-10T11:44:33.199Z,13.95
2023-05-10T11:47:01.283Z,14.02
2023-05-10T11:49:27.938Z,14.06
2023-05-10T11:51:54.621Z,14.09
2023-05-10T11:54:21.434Z,14.12
2023-05-10T11:56:48.077Z,14.14
2023-05-10T11:59:15.188Z,14.17
2023-05-10T12:01:42.332Z,14.22
2023-05-10T12:04:09.242Z,14.23
2023-05-10T12:06:41.488Z,14.19
2023-05-10T12:09:09.235Z,14.13
2023-05-10T12:11:41.197Z,14.13
2023-05-10T12:14:10.612Z,14.12
2023-05-10T12:16:37.239Z,14.14
2023-05-10T12:19:04.048Z,14.19
2023-05-10T12:21:31.766Z,14.23
2023-05-10T12:24:05.835Z,14.26
2023-05-10T12:26:32.952Z,14.27
2023-05-10T12:29:19.085Z,14.27
2023-05-10T12:31:56.558Z,14.22
2023-05-10T12:34:34.067Z,14.19
2023-05-10T12:37:01.269Z,14.19
2023-05-10T12:39:42.108Z,14.19
2023-05-10T12:42:08.961Z,14.19
2023-05-10T12:44:35.601Z,14.23
2023-05-10T12:47:02.228Z,14.26
2023-05-10T12:49:28.953Z,14.22
2023-05-10T12:51:55.856Z,14.17
2023-05-10T12:54:22.674Z,14.16
2023-05-10T12:56:49.358Z,14.16
2023-05-10T12:59:16.037Z,14.17
2023-05-10T13:01:42.715Z,14.19
2023-05-10T13:04:09.505Z,14.21
2023-05-10T13:06:36.162Z,14.18
2023-05-10T13:09:03.431Z,14.10
2023-05-10T13:11:30.109Z,14.09
2023-05-10T13:13:56.922Z,14.14
2023-05-10T13:16:23.754Z,14.20
2023-05-10T13:18:50.605Z,14.27
2023-05-10T13:21:17.682Z,14.32
2023-05-10T13:23:44.601Z,14.27
2023-05-10T13:26:11.389Z,14.22
2023-05-10T13:28:39.782Z,14.19
2023-05-10T13:31:06.449Z,14.18
2023-05-10T13:33:33.128Z,14.20
2023-05-10T13:35:59.789Z,14.23
2023-05-10T13:38:26.795Z,14.25
2023-05-10T13:40:53.922Z,14.26
2023-05-10T13:43:20.877Z,14.23
2023-05-10T13:45:47.657Z,14.19
2023-05-10T13:48:14.349Z,14.12
2023-05-10T13:50:41.217Z,14.05
2023-05-10T13:53:07.998Z,14.00
2023-05-10T13:56:31.870Z,13.93
2023-05-10T13:59:01.629Z,13.83
2023-05-10T14:01:28.767Z,13.82
2023-05-10T14:03:55.874Z,13.83
2023-05-10T14:06:22.910Z,13.85
2023-05-10T14:08:49.964Z,13.83
2023-05-10T14:11:16.886Z,13.79
2023-05-10T14:13:43.774Z,13.79
2023-05-10T14:16:10.650Z,13.81
2023-05-10T14:18:37.610Z,13.82
2023-05-10T14:21:04.699Z,13.83
2023-05-10T14:23:31.468Z,13.85
2023-05-10T14:25:58.417Z,13.89
2023-05-10T14:28:26.034Z,13.94
2023-05-10T14:30:52.896Z,14.01
2023-05-10T14:33:20.242Z,14.08
2023-05-10T14:35:47.741Z,14.14
2023-05-10T14:38:15.020Z,14.14
2023-05-10T14:40:41.737Z,14.14
2023-05-10T14:43:08.398Z,14.11
2023-05-10T14:45:35.200Z,14.06
2023-05-10T14:48:05.558Z,14.03
2023-05-10T14:50:36.959Z,14.00
2023-05-10T14:53:38.438Z,13.95
2023-05-10T14:56:05.547Z,13.92
2023-05-10T14:58:34.104Z,13.89
2023-05-10T15:01:02.182Z,13.87
2023-05-10T15:03:29.956Z,13.87
2023-05-10T15:05:58.737Z,13.85
2023-05-10T15:08:25.904Z,13.80
2023-05-10T15:10:52.945Z,13.72
2023-05-10T15:13:19.894Z,13.65
2023-05-10T15:15:46.872Z,13.60
2023-05-10T15:18:13.745Z,13.57
2023-05-10T15:20:40.472Z,13.54
2023-05-10T15:23:07.154Z,13.52
2023-05-10T15:25:35.888Z,13.51
2023-05-10T15:28:03.839Z,13.53
2023-05-10T15:33:09.068Z,13.56
2023-05-10T15:35:37.403Z,13.53
2023-05-10T15:38:04.203Z,13.50
2023-05-10T15:40:30.730Z,13.48
2023-05-10T15:42:57.563Z,13.48
2023-05-10T15:45:24.117Z,13.46
2023-05-10T15:47:50.999Z,13.45
2023-05-10T15:50:17.632Z,13.43
2023-05-10T15:52:44.547Z,13.43
2023-05-10T15:55:14.037Z,13.43
2023-05-10T15:57:41.720Z,13.43
2023-05-10T16:00:09.070Z,13.45
2023-05-10T16:02:42.577Z,13.45
2023-05-10T16:05:09.415Z,13.47
2023-05-10T16:07:37.411Z,13.48
2023-05-10T16:10:05.892Z,13.49
2023-05-10T16:12:32.439Z,13.50
2023-05-10T16:14:58.983Z,13.49
2023-05-10T16:17:25.859Z,13.49
2023-05-10T16:19:52.762Z,13.50
2023-05-10T16:22:21.650Z,13.50
2023-05-10T16:24:48.172Z,13.47
2023-05-10T16:27:14.824Z,13.42
2023-05-10T16:29:41.971Z,13.36
2023-05-10T16:32:08.521Z,13.31
2023-05-10T16:34:35.158Z,13.25
2023-05-10T16:37:01.777Z,13.21
2023-05-10T16:39:28.329Z,13.14
2023-05-10T16:41:54.898Z,13.06
2023-05-10T16:44:23.578Z,12.98
2023-05-10T16:46:52.494Z,12.92
2023-05-10T16:49:19.122Z,12.85
2023-05-10T16:51:45.781Z,12.78
2023-05-10T16:54:12.254Z,12.69
2023-05-10T16:56:38.920Z,12.61
2023-05-10T16:59:05.469Z,12.54
2023-05-10T17:01:33.184Z,12.50
2023-05-10T17:03:59.719Z,12.47
2023-05-10T17:06:26.940Z,12.43
2023-05-10T17:08:53.384Z,12.37
2023-05-10T17:11:21.195Z,12.31
2023-05-10T17:13:47.846Z,12.25
2023-05-10T17:16:14.603Z,12.19
2023-05-10T17:18:42.000Z,12.12
2023-05-10T17:21:08.840Z,12.04
2023-05-10T17:23:35.804Z,11.96
2023-05-10T17:26:05.944Z,11.88
2023-05-10T17:28:32.598Z,11.82
2023-05-10T17:30:59.418Z,11.73
2023-05-10T17:33:25.900Z,11.64
2023-05-10T17:35:52.445Z,11.52
2023-05-10T17:38:19.363Z,11.40
2023-05-10T17:40:45.893Z,11.31
2023-05-10T17:43:12.415Z,11.21
2023-05-10T17:45:38.934Z,11.11
2023-05-10T17:48:05.557Z,11.02
2023-05-10T17:50:32.416Z,10.90
2023-05-10T17:52:59.260Z,10.79
2023-05-10T17:55:26.494Z,10.69
2023-05-10T17:57:53.193Z,10.60
2023-05-10T18:00:19.863Z,10.51
2023-05-10T18:02:46.349Z,10.43
2023-05-10T18:05:13.127Z,10.35
2023-05-10T18:07:40.428Z,10.28
2023-05-10T18:10:07.370Z,10.19
2023-05-10T18:12:33.898Z,10.07
2023-05-10T18:15:00.388Z,9.97
2023-05-10T18:17:27.129Z,9.85
2023-05-10T18:19:53.673Z,9.74
2023-05-10T18:22:20.542Z,9.65
2023-05-10T18:24:47.102Z,9.58
2023-05-10T18:27:13.557Z,9.50
2023-05-10T18:29:40.049Z,9.42
2023-05-10T18:32:06.787Z,9.34
2023-05-10T18:34:33.343Z,9.27
2023-05-10T18:36:59.965Z,9.20
2023-05-10T18:39:26.498Z,9.14
2023-05-10T18:41:53.044Z,9.08
2023-05-10T18:44:21.335Z,9.00
2023-05-10T18:46:47.949Z,8.90
2023-05-10T18:49:14.513Z,8.81
2023-05-10T18:51:41.018Z,8.73
2023-05-10T18:54:07.794Z,8.68
2023-05-10T18:56:34.325Z,8.60
2023-05-10T18:59:00.880Z,8.52
2023-05-10T19:01:27.483Z,8.44
2023-05-10T19:03:54.137Z,8.37
2023-05-10T19:06:20.601Z,8.31
2023-05-10T19:08:47.364Z,8.24
2023-05-10T19:11:14.055Z,8.14
2023-05-10T19:13:40.591Z,8.02
2023-05-10T19:16:14.518Z,7.93
2023-05-10T19:18:41.382Z,7.84
2023-05-10T19:21:10.133Z,7.76
2023-05-10T19:23:39.645Z,7.67
2023-05-10T19:26:06.120Z,7.58
2023-05-10T19:28:34.861Z,7.51
2023-05-10T19:31:01.471Z,7.44
2023-05-10T19:33:28.423Z,7.38
2023-05-10T19:35:54.970Z,7.30
2023-05-10T19:38:21.992Z,7.19
2023-05-10T19:40:57.907Z,7.09
2023-05-10T19:43:25.457Z,6.98
2023-05-10T19:45:52.140Z,6.90
2023-05-10T19:48:18.817Z,6.84
2023-05-10T19:50:45.651Z,6.79
2023-05-10T19:53:12.170Z,6.73
2023-05-10T19:55:39.555Z,6.64
2023-05-10T19:58:06.235Z,6.56
2023-05-10T20:00:32.756Z,6.48
2023-05-10T20:02:59.811Z,6.43
2023-05-10T20:05:26.409Z,6.39
2023-05-10T20:07:52.954Z,6.34
2023-05-10T20:10:21.110Z,6.27
2023-05-10T20:12:50.516Z,6.20
2023-05-10T20:15:21.449Z,6.11
2023-05-10T20:17:50.419Z,6.02
2023-05-10T20:20:17.090Z,5.91
2023-05-10T20:22:43.868Z,5.79
2023-05-10T20:25:10.863Z,5.67
2023-05-10T20:27:37.690Z,5.57
2023-05-10T20:30:05.074Z,5.54
2023-05-10T20:32:33.199Z,5.54
2023-05-10T20:34:59.863Z,5.56
2023-05-10T20:37:27.437Z,5.57
2023-05-10T20:39:54.132Z,5.55
2023-05-10T20:42:20.902Z,5.51
2023-05-10T20:44:47.336Z,5.50
2023-05-10T20:47:14.053Z,5.52
2023-05-10T20:49:40.496Z,5.53
2023-05-10T20:52:07.089Z,5.55
2023-05-10T20:54:33.520Z,5.53
2023-05-10T20:57:01.363Z,5.52
2023-05-10T20:59:28.202Z,5.50
2023-05-10T21:01:56.277Z,5.50
2023-05-10T21:04:22.754Z,5.46
2023-05-10T21:06:49.267Z,5.41
2023-05-10T21:09:16.814Z,5.34
2023-05-10T21:11:43.443Z,5.28
2023-05-10T21:14:10.114Z,5.25
2023-05-10T21:16:37.186Z,5.22
2023-05-10T21:19:03.732Z,5.14
2023-05-10T21:21:30.431Z,5.02
2023-05-10T21:23:56.876Z,4.92
2023-05-10T21:26:23.353Z,4.88
2023-05-10T21:28:49.907Z,4.86
2023-05-10T21:31:16.376Z,4.86
2023-05-10T21:33:42.940Z,4.86
2023-05-10T21:36:09.538Z,4.82
2023-05-10T21:38:36.414Z,4.76
2023-05-10T21:41:07.117Z,4.71
2023-05-10T21:43:33.731Z,4.70
2023-05-10T21:46:00.723Z,4.70
2023-05-10T21:48:27.196Z,4.70
2023-05-10T21:50:53.786Z,4.66
2023-05-10T21:53:21.616Z,4.62
2023-05-10T21:55:48.062Z,4.63
2023-05-10T21:58:15.196Z,4.64
2023-05-10T22:00:41.690Z,4.64
2023-05-10T22:03:08.262Z,4.65
2023-05-10T22:05:35.119Z,4.64
2023-05-10T22:08:01.600Z,4.63
2023-05-10T22:10:28.862Z,4.60
2023-05-10T22:12:56.586Z,4.57
2023-05-10T22:15:23.042Z,4.53
2023-05-10T22:17:49.592Z,4.45
2023-05-10T22:20:16.370Z,4.37
2023-05-10T22:22:43.923Z,4.32
2023-05-10T22:25:10.481Z,4.26
2023-05-10T22:27:37.254Z,4.16
2023-05-10T22:30:04.599Z,4.05
2023-05-10T22:32:31.255Z,3.94
2023-05-10T22:34:58.071Z,3.86
2023-05-10T22:37:24.607Z,3.81
2023-05-10T22:39:51.820Z,3.77
2023-05-10T22:42:18.344Z,3.73
2023-05-10T22:44:44.855Z,3.71
2023-05-10T22:47:12.037Z,3.71
2023-05-10T22:49:38.483Z,3.69
2023-05-10T22:52:04.982Z,3.64
2023-05-10T22:54:31.811Z,3.64
2023-05-10T22:56:59.301Z,3.66
2023-05-10T22:59:27.632Z,3.67
2023-05-10T23:01:54.169Z,3.65
2023-05-10T23:04:20.756Z,3.63
2023-05-10T23:06:47.409Z,3.59
2023-05-10T23:09:13.857Z,3.56
2023-05-10T23:11:40.511Z,3.53
2023-05-10T23:14:07.230Z,3.52
2023-05-10T23:16:33.794Z,3.50
2023-05-10T23:19:00.635Z,3.48
2023-05-10T23:21:28.761Z,3.45
2023-05-10T23:23:56.508Z,3.40
2023-05-10T23:26:23.150Z,3.36
2023-05-10T23:28:49.920Z,3.33
2023-05-10T23:31:16.560Z,3.32
2023-05-10T23:33:43.145Z,3.33
2023-05-10T23:36:09.605Z,3.30
2023-05-10T23:38:37.370Z,3.29
2023-05-10T23:41:04.020Z,3.26
2023-05-10T23:43:31.013Z,3.25
2023-05-10T23:45:57.709Z,3.25
2023-05-10T23:48:24.281Z,3.24
2023-05-10T23:50:51.057Z,3.23
2023-05-10T23:53:17.721Z,3.21
2023-05-10T23:55:44.533Z,3.14
2023-05-10T23:58:10.974Z,3.07
